createdAt,value
2018-12-19T00:02:24.930Z,21.03
2018-12-19T00:04:57.470Z,21.37
2018-12-19T00:07:30.176Z,21.07
2018-12-19T00:10:00.635Z,19.43
2018-12-19T00:12:32.450Z,20.03
2018-12-19T00:15:03.764Z,20.10
2018-12-19T00:17:36.402Z,19.77
2018-12-19T00:20:08.268Z,20.40
2018-12-19T00:22:38.838Z,19.27
2018-12-19T00:25:09.725Z,21.03
2018-12-19T00:27:42.423Z,22.17
2018-12-19T00:30:14.979Z,21.73
2018-12-19T00:32:47.611Z,22.27
2018-12-19T00:35:21.020Z,21.30
2018-12-19T00:37:51.519Z,21.80
2018-12-19T00:40:23.215Z,22.93
2018-12-19T00:42:53.837Z,21.27
2018-12-19T00:45:24.803Z,20.87
2018-12-19T00:47:55.330Z,22.30
2018-12-19T00:50:27.814Z,23.30
2018-12-19T00:52:58.364Z,20.13
2018-12-19T00:55:28.814Z,22.10
2018-12-19T00:58:00.286Z,22.07
2018-12-19T01:00:30.986Z,20.87
2018-12-19T01:03:01.588Z,21.00
2018-12-19T01:05:32.051Z,20.53
2018-12-19T01:08:02.744Z,20.07
2018-12-19T01:10:33.337Z,22.13
2018-12-19T01:13:03.846Z,21.53
2018-12-19T01:15:34.336Z,21.17
2018-12-19T01:18:05.028Z,20.83
2018-12-19T01:20:35.651Z,20.73
2018-12-19T01:23:06.247Z,20.43
2018-12-19T01:25:36.712Z,20.43
2018-12-19T01:28:07.261Z,19.93
2018-12-19T01:30:38.860Z,21.63
2018-12-19T01:33:09.392Z,20.77
2018-12-19T01:35:40.589Z,22.10
2018-12-19T01:38:11.320Z,22.07
2018-12-19T01:40:41.934Z,21.23
2018-12-19T01:45:55.106Z,20.83
2018-12-19T01:48:25.910Z,21.60
2018-12-19T01:50:56.364Z,22.93
2018-12-19T01:53:26.934Z,23.90
2018-12-19T01:55:57.548Z,22.53
2018-12-19T01:58:28.084Z,23.00
2018-12-19T02:00:58.662Z,22.90
2018-12-19T02:03:30.498Z,23.80
2018-12-19T02:06:01.078Z,24.23
2018-12-19T02:08:31.580Z,24.50
2018-12-19T02:11:02.121Z,23.27
2018-12-19T02:13:32.784Z,23.13
2018-12-19T02:16:03.232Z,24.57
2018-12-19T02:18:33.638Z,25.37
2018-12-19T02:21:04.062Z,25.33
2018-12-19T02:23:34.952Z,23.80
2018-12-19T02:26:05.636Z,24.10
2018-12-19T02:28:36.138Z,26.40
2018-12-19T02:31:06.824Z,23.77
2018-12-19T02:33:37.312Z,26.73
2018-12-19T02:36:07.882Z,24.07
2018-12-19T02:38:38.321Z,24.20
2018-12-19T02:41:08.967Z,25.33
2018-12-19T02:43:39.573Z,25.10
2018-12-19T02:46:10.119Z,24.20
2018-12-19T02:48:40.743Z,24.83
2018-12-19T02:51:11.355Z,23.70
2018-12-19T02:53:41.843Z,25.40
2018-12-19T02:56:12.313Z,21.80
2018-12-19T02:58:42.919Z,22.90
2018-12-19T03:01:13.615Z,22.63
2018-12-19T03:03:44.644Z,24.23
2018-12-19T03:06:15.432Z,23.70
2018-12-19T03:08:46.200Z,21.07
2018-12-19T03:11:17.072Z,20.97
2018-12-19T03:13:51.638Z,22.80
2018-12-19T03:16:22.935Z,23.40
2018-12-19T03:18:54.444Z,24.17
2018-12-19T03:21:25.130Z,24.53
2018-12-19T03:23:55.649Z,23.33
2018-12-19T03:26:26.405Z,23.63
2018-12-19T03:28:57.025Z,25.83
2018-12-19T03:31:27.661Z,24.10
2018-12-19T03:33:58.606Z,24.07
2018-12-19T03:36:29.378Z,22.57
2018-12-19T03:39:00.135Z,23.63
2018-12-19T03:41:31.019Z,25.63
2018-12-19T03:44:01.906Z,23.20
2018-12-19T03:46:32.735Z,25.77
2018-12-19T03:49:03.359Z,25.97
2018-12-19T03:51:34.098Z,27.17
2018-12-19T03:54:04.861Z,25.53
2018-12-19T03:56:35.394Z,24.43
2018-12-19T03:59:06.052Z,25.43
2018-12-19T04:01:37.391Z,25.90
2018-12-19T04:04:08.711Z,24.33
2018-12-19T04:06:40.633Z,26.70
2018-12-19T04:09:12.098Z,25.17
2018-12-19T04:11:43.553Z,27.13
2018-12-19T04:14:15.709Z,25.80
2018-12-19T04:16:47.280Z,25.87
2018-12-19T04:19:18.891Z,27.33
2018-12-19T04:21:52.710Z,27.27
2018-12-19T04:24:24.430Z,26.57
2018-12-19T04:26:56.399Z,25.33
2018-12-19T04:29:27.792Z,24.93
2018-12-19T04:32:00.830Z,24.03
2018-12-19T04:34:32.190Z,26.27
2018-12-19T04:37:03.581Z,28.47
2018-12-19T04:39:36.372Z,23.97
2018-12-19T04:42:08.190Z,25.40
2018-12-19T04:44:39.530Z,25.53
2018-12-19T04:47:10.851Z,25.97
2018-12-19T04:49:42.090Z,28.83
2018-12-19T04:52:13.680Z,26.60
2018-12-19T04:54:45.310Z,26.17
2018-12-19T04:57:17.060Z,26.03
2018-12-19T04:59:48.552Z,26.37
2018-12-19T05:02:20.102Z,26.73
2018-12-19T05:04:51.201Z,24.63
2018-12-19T05:07:23.040Z,26.23
2018-12-19T05:09:54.472Z,24.70
2018-12-19T05:12:26.920Z,24.63
2018-12-19T05:14:58.182Z,25.67
2018-12-19T05:17:29.490Z,25.07
2018-12-19T05:20:01.066Z,27.43
2018-12-19T05:22:32.821Z,24.43
2018-12-19T05:25:04.420Z,26.23
2018-12-19T05:27:35.720Z,26.27
2018-12-19T05:30:07.959Z,26.43
2018-12-19T05:32:39.381Z,24.57
2018-12-19T05:35:10.845Z,24.97
2018-12-19T05:37:42.600Z,25.30
2018-12-19T05:40:18.933Z,25.10
2018-12-19T05:42:47.731Z,24.80
2018-12-19T05:45:19.111Z,23.73
2018-12-19T05:47:53.220Z,23.63
2018-12-19T05:50:33.671Z,23.93
2018-12-19T05:53:05.063Z,26.70
2018-12-19T05:55:36.352Z,23.53
2018-12-19T05:58:08.221Z,24.00
2018-12-19T06:00:39.871Z,24.33
2018-12-19T06:03:13.600Z,23.60
2018-12-19T06:05:45.170Z,25.33
2018-12-19T06:08:16.743Z,24.63
2018-12-19T06:10:48.072Z,25.83
2018-12-19T06:13:19.372Z,23.27
2018-12-19T06:15:51.110Z,24.43
2018-12-19T06:18:22.950Z,23.00
2018-12-19T06:20:54.590Z,27.03
2018-12-19T06:23:26.540Z,24.77
2018-12-19T06:25:59.070Z,24.37
2018-12-19T06:28:30.763Z,26.43
2018-12-19T06:33:45.920Z,24.83
2018-12-19T06:36:17.480Z,23.53
2018-12-19T06:38:49.440Z,22.30
2018-12-19T06:41:21.170Z,25.03
2018-12-19T06:43:52.940Z,25.63
2018-12-19T06:46:24.570Z,26.17
2018-12-19T06:48:56.211Z,24.30
2018-12-19T06:51:27.885Z,25.00
2018-12-19T06:53:59.510Z,22.03
2018-12-19T06:56:31.010Z,26.27
2018-12-19T06:59:02.800Z,28.20
2018-12-19T07:01:34.770Z,22.83
2018-12-19T07:04:06.189Z,24.10
2018-12-19T07:06:38.410Z,25.17
2018-12-19T07:09:11.182Z,22.77
2018-12-19T07:11:42.839Z,23.93
2018-12-19T07:14:14.565Z,25.13
2018-12-19T07:16:46.082Z,24.43
2018-12-19T07:19:17.955Z,24.73
2018-12-19T07:21:50.370Z,23.27
2018-12-19T07:24:22.031Z,26.80
2018-12-19T07:26:54.260Z,24.03
2018-12-19T07:29:25.690Z,21.83
2018-12-19T07:31:57.320Z,25.13
2018-12-19T07:34:29.000Z,26.93
2018-12-19T07:37:00.590Z,27.20
2018-12-19T07:39:32.360Z,26.20
2018-12-19T07:42:03.950Z,30.47
2018-12-19T07:44:36.070Z,27.40
2018-12-19T07:47:07.681Z,25.73
2018-12-19T07:49:39.481Z,25.40
2018-12-19T07:52:11.630Z,26.37
2018-12-19T07:54:43.150Z,25.13
2018-12-19T07:57:14.880Z,28.33
2018-12-19T07:59:46.730Z,27.90
2018-12-19T08:02:18.510Z,23.77
2018-12-19T08:04:50.920Z,28.87
2018-12-19T08:07:22.491Z,29.13
2018-12-19T08:09:54.120Z,26.83
2018-12-19T08:12:27.023Z,28.07
2018-12-19T08:15:03.351Z,25.93
2018-12-19T08:17:49.540Z,30.63
2018-12-19T08:20:41.350Z,25.93
2018-12-19T08:23:18.090Z,22.10
2018-12-19T08:25:49.720Z,22.33
2018-12-19T08:28:21.520Z,23.20
2018-12-19T08:30:53.440Z,25.40
2018-12-19T08:33:25.050Z,21.67
2018-12-19T08:35:56.750Z,23.67
2018-12-19T08:38:28.623Z,26.90
2018-12-19T08:41:00.320Z,18.77
2018-12-19T08:43:31.990Z,20.67
2018-12-19T08:46:03.570Z,23.47
2018-12-19T08:48:35.449Z,21.57
2018-12-19T08:51:07.290Z,20.13
2018-12-19T08:53:40.310Z,23.57
2018-12-19T08:56:12.170Z,22.03
2018-12-19T08:58:43.680Z,20.00
2018-12-19T09:01:15.593Z,22.50
2018-12-19T09:03:47.111Z,23.83
2018-12-19T09:06:18.910Z,16.80
2018-12-19T09:08:50.430Z,19.47
2018-12-19T09:11:21.960Z,22.40
2018-12-19T09:13:54.610Z,17.17
2018-12-19T09:16:27.331Z,19.47
2018-12-19T09:18:59.190Z,17.43
2018-12-19T09:21:31.060Z,18.90
2018-12-19T09:24:02.830Z,25.70
2018-12-19T09:26:34.232Z,38.43
2018-12-19T09:29:05.721Z,49.30
2018-12-19T09:31:37.390Z,40.37
2018-12-19T09:34:09.759Z,36.30
2018-12-19T09:36:41.379Z,24.93
2018-12-19T09:39:13.030Z,27.03
2018-12-19T09:41:45.131Z,25.57
2018-12-19T09:44:16.859Z,20.07
2018-12-19T09:46:48.449Z,19.30
2018-12-19T09:49:20.979Z,19.37
2018-12-19T09:51:53.011Z,19.33
2018-12-19T09:54:24.800Z,17.67
2018-12-19T09:56:58.029Z,16.47
2018-12-19T09:59:29.521Z,23.80
2018-12-19T10:02:01.549Z,20.50
2018-12-19T10:04:33.173Z,18.20
2018-12-19T10:07:04.749Z,16.00
2018-12-19T10:09:36.499Z,14.33
2018-12-19T10:12:08.297Z,14.23
2018-12-19T10:14:40.539Z,15.37
2018-12-19T10:17:12.059Z,14.67
2018-12-19T10:19:44.170Z,15.50
2018-12-19T10:22:19.390Z,16.00
2018-12-19T10:24:55.840Z,16.03
2018-12-19T10:27:27.071Z,14.03
2018-12-19T10:29:58.320Z,14.83
2018-12-19T10:32:33.902Z,13.87
2018-12-19T10:35:05.949Z,15.50
2018-12-19T10:37:39.039Z,16.27
2018-12-19T10:40:12.949Z,16.53
2018-12-19T10:42:44.470Z,14.83
2018-12-19T10:45:16.282Z,16.50
2018-12-19T10:47:48.149Z,15.57
2018-12-19T10:50:19.870Z,16.87
2018-12-19T10:52:53.569Z,17.50
2018-12-19T10:55:26.942Z,20.53
2018-12-19T10:57:58.209Z,20.77
2018-12-19T11:00:35.827Z,18.47
2018-12-19T11:03:07.219Z,20.80
2018-12-19T11:05:39.169Z,22.83
2018-12-19T11:08:10.782Z,24.80
2018-12-19T11:10:42.679Z,22.17
2018-12-19T11:13:15.460Z,24.00
2018-12-19T11:15:48.759Z,25.43
2018-12-19T11:18:20.670Z,23.67
2018-12-19T11:20:52.650Z,23.33
2018-12-19T11:23:24.610Z,20.03
2018-12-19T11:25:56.250Z,21.03
2018-12-19T11:28:28.300Z,30.40
2018-12-19T11:31:00.163Z,32.73
2018-12-19T11:33:31.540Z,17.60
2018-12-19T11:36:03.701Z,15.53
2018-12-19T11:38:35.270Z,15.93
2018-12-19T11:41:07.020Z,15.13
2018-12-19T11:43:38.899Z,15.23
2018-12-19T11:46:10.460Z,17.03
2018-12-19T11:48:42.049Z,14.23
2018-12-19T11:51:13.559Z,11.87
2018-12-19T11:53:45.120Z,15.87
2018-12-19T11:56:17.209Z,14.27
2018-12-19T11:58:49.401Z,15.93
2018-12-19T12:01:21.420Z,15.30
2018-12-19T12:03:54.680Z,17.03
2018-12-19T12:06:28.690Z,16.93
2018-12-19T12:09:00.369Z,14.97
2018-12-19T12:11:31.779Z,15.77
2018-12-19T12:14:03.460Z,15.70
2018-12-19T12:16:35.350Z,16.07
2018-12-19T12:19:07.693Z,17.27
2018-12-19T12:21:40.939Z,14.53
2018-12-19T12:24:12.489Z,14.23
2018-12-19T12:26:46.939Z,16.13
2018-12-19T12:29:18.580Z,14.03
2018-12-19T12:31:50.389Z,14.13
2018-12-19T12:34:23.159Z,15.70
2018-12-19T12:36:55.240Z,13.43
2018-12-19T12:39:26.690Z,14.27
2018-12-19T12:42:00.137Z,14.33
2018-12-19T12:44:34.220Z,13.40
2018-12-19T12:47:05.670Z,15.13
2018-12-19T12:49:38.490Z,13.87
2018-12-19T12:52:10.359Z,15.43
2018-12-19T12:54:42.070Z,14.67
2018-12-19T12:57:16.620Z,14.10
2018-12-19T13:02:33.679Z,13.60
2018-12-19T13:05:05.549Z,13.60
2018-12-19T13:07:37.229Z,14.57
2018-12-19T13:10:10.209Z,14.27
2018-12-19T13:12:41.670Z,14.30
2018-12-19T13:15:15.329Z,21.80
2018-12-19T13:17:49.999Z,26.20
2018-12-19T13:20:22.309Z,25.93
2018-12-19T13:22:54.021Z,25.40
2018-12-19T13:25:25.880Z,26.47
2018-12-19T13:27:57.620Z,24.27
2018-12-19T13:30:29.559Z,23.03
2018-12-19T13:33:01.281Z,24.57
2018-12-19T13:35:33.079Z,30.47
2018-12-19T13:38:09.460Z,31.60
2018-12-19T13:40:42.829Z,47.23
2018-12-19T13:43:14.545Z,38.63
2018-12-19T13:45:45.759Z,29.80
2018-12-19T13:48:17.539Z,53.27
2018-12-19T13:50:48.923Z,47.40
2018-12-19T13:53:20.429Z,43.27
2018-12-19T13:55:52.039Z,37.30
2018-12-19T13:58:23.949Z,45.60
2018-12-19T14:00:55.799Z,52.50
2018-12-19T14:03:28.659Z,43.90
2018-12-19T14:06:00.030Z,49.40
2018-12-19T14:08:31.752Z,38.97
2018-12-19T14:11:03.289Z,49.97
2018-12-19T14:13:34.890Z,54.57
2018-12-19T14:16:06.229Z,57.47
2018-12-19T14:18:39.630Z,163.57
2018-12-19T14:21:11.010Z,121.43
2018-12-19T14:23:42.821Z,125.87
2018-12-19T14:26:15.569Z,43.60
2018-12-19T14:28:47.500Z,22.10
2018-12-19T14:31:20.510Z,16.77
2018-12-19T14:33:53.429Z,16.27
2018-12-19T14:36:26.189Z,17.60
2018-12-19T14:38:57.659Z,17.53
2018-12-19T14:41:29.180Z,18.00
2018-12-19T14:44:00.889Z,19.13
2018-12-19T14:46:32.389Z,17.20
2018-12-19T14:49:04.079Z,18.40
2018-12-19T14:51:35.989Z,18.37
2018-12-19T14:54:07.619Z,16.63
2018-12-19T14:56:39.139Z,18.53
2018-12-19T14:59:10.931Z,16.00
2018-12-19T15:01:43.039Z,17.77
2018-12-19T15:04:14.623Z,15.70
2018-12-19T15:06:46.059Z,17.77
2018-12-19T15:09:17.779Z,16.67
2018-12-19T15:11:49.159Z,16.30
2018-12-19T15:14:20.779Z,17.57
2018-12-19T15:16:52.389Z,17.73
2018-12-19T15:19:24.079Z,18.77
2018-12-19T15:21:56.709Z,18.77
2018-12-19T15:24:30.069Z,18.47
2018-12-19T15:27:02.918Z,18.83
2018-12-19T15:29:34.469Z,16.53
2018-12-19T15:32:06.167Z,18.10
2018-12-19T15:34:38.169Z,17.40
2018-12-19T15:37:09.808Z,18.27
2018-12-19T15:39:41.559Z,16.67
2018-12-19T15:42:14.741Z,16.17
2018-12-19T15:44:46.208Z,16.50
2018-12-19T15:47:17.609Z,16.77
2018-12-19T15:49:51.048Z,18.57
2018-12-19T15:52:24.829Z,17.07
2018-12-19T15:54:57.259Z,17.60
2018-12-19T15:57:28.730Z,17.60
2018-12-19T16:00:00.552Z,16.73
2018-12-19T16:02:35.419Z,17.90
2018-12-19T16:05:07.209Z,17.67
2018-12-19T16:07:39.079Z,16.67
2018-12-19T16:10:12.319Z,18.67
2018-12-19T16:12:46.069Z,18.73
2018-12-19T16:15:17.469Z,18.43
2018-12-19T16:17:49.048Z,17.17
2018-12-19T16:20:20.629Z,19.17
2018-12-19T16:22:53.039Z,17.27
2018-12-19T16:25:26.729Z,19.13
2018-12-19T16:27:58.018Z,18.00
2018-12-19T16:30:29.889Z,20.47
2018-12-19T16:33:01.519Z,18.70
2018-12-19T16:35:32.948Z,17.63
2018-12-19T16:38:04.489Z,16.23
2018-12-19T16:40:36.520Z,18.87
2018-12-19T16:43:11.679Z,21.20
2018-12-19T16:45:43.328Z,19.17
2018-12-19T16:48:16.368Z,26.30
2018-12-19T16:50:48.240Z,25.40
2018-12-19T16:53:20.019Z,30.90
2018-12-19T16:55:51.639Z,32.20
2018-12-19T16:58:23.218Z,28.97
2018-12-19T17:00:56.589Z,23.53
2018-12-19T17:03:29.888Z,20.70
2018-12-19T17:06:01.378Z,22.43
2018-12-19T17:08:33.089Z,22.33
2018-12-19T17:11:04.789Z,20.60
2018-12-19T17:13:36.768Z,22.13
2018-12-19T17:16:08.458Z,20.30
2018-12-19T17:18:41.609Z,22.97
2018-12-19T17:21:13.289Z,23.57
2018-12-19T17:23:45.169Z,21.87
2018-12-19T17:26:17.241Z,22.67
2018-12-19T17:28:49.819Z,19.47
2018-12-19T17:31:21.659Z,22.37
2018-12-19T17:33:53.181Z,22.97
2018-12-19T17:36:24.589Z,23.10
2018-12-19T17:38:56.008Z,19.37
2018-12-19T17:41:28.231Z,21.07
2018-12-19T17:44:00.759Z,22.03
2018-12-19T17:46:33.059Z,18.00
2018-12-19T17:49:05.179Z,20.57
2018-12-19T17:51:37.208Z,20.33
2018-12-19T17:54:11.079Z,20.70
2018-12-19T17:56:43.684Z,19.93
2018-12-19T17:59:15.169Z,18.97
2018-12-19T18:01:46.799Z,19.63
2018-12-19T18:04:18.459Z,19.47
2018-12-19T18:06:50.348Z,20.30
2018-12-19T18:09:23.389Z,22.17
2018-12-19T18:11:55.388Z,18.60
2018-12-19T18:14:26.829Z,18.33
2018-12-19T18:16:58.097Z,19.23
2018-12-19T18:19:31.149Z,19.63
2018-12-19T18:22:02.879Z,19.70
2018-12-19T18:24:36.782Z,19.47
2018-12-19T18:27:10.090Z,19.40
2018-12-19T18:29:41.750Z,22.47
2018-12-19T18:32:13.410Z,20.30
2018-12-19T18:34:45.630Z,20.20
2018-12-19T18:37:17.309Z,20.00
2018-12-19T18:39:48.911Z,21.07
2018-12-19T18:42:20.771Z,17.53
2018-12-19T18:44:53.080Z,20.67
2018-12-19T18:47:26.050Z,17.50
2018-12-19T18:49:59.071Z,23.10
2018-12-19T18:52:30.610Z,21.63
2018-12-19T18:55:02.280Z,19.83
2018-12-19T18:57:33.852Z,17.07
2018-12-19T19:00:06.828Z,19.40
2018-12-19T19:02:38.480Z,21.97
2018-12-19T19:05:10.481Z,20.87
2018-12-19T19:07:43.120Z,19.97
2018-12-19T19:10:14.721Z,20.73
2018-12-19T19:12:48.800Z,20.20
2018-12-19T19:15:20.855Z,18.77
2018-12-19T19:17:52.455Z,18.17
2018-12-19T19:20:24.992Z,21.00
2018-12-19T19:22:56.811Z,22.03
2018-12-19T19:39:51.521Z,18.37
2018-12-19T19:42:24.671Z,18.57
2018-12-19T19:44:56.443Z,17.57
2018-12-19T19:47:29.662Z,19.83
2018-12-19T19:50:01.607Z,18.40
2018-12-19T19:52:33.459Z,17.63
2018-12-19T19:55:05.341Z,20.53
2018-12-19T19:57:37.471Z,17.97
2018-12-19T20:00:11.161Z,18.17
2018-12-19T20:02:42.691Z,18.17
2018-12-19T20:05:14.092Z,19.47
2018-12-19T20:07:45.601Z,22.03
2018-12-19T20:10:17.492Z,22.20
2018-12-19T20:12:50.501Z,24.43
2018-12-19T20:15:22.891Z,20.77
2018-12-19T20:17:55.710Z,20.50
2018-12-19T20:20:27.331Z,20.07
2018-12-19T20:22:58.790Z,23.97
2018-12-19T20:25:30.201Z,23.30
2018-12-19T20:28:04.451Z,22.43
2018-12-19T20:30:36.955Z,24.13
2018-12-19T20:33:08.431Z,21.63
2018-12-19T20:35:39.882Z,22.57
2018-12-19T20:38:11.431Z,23.40
2018-12-19T20:40:42.257Z,23.13
2018-12-19T20:43:13.399Z,23.00
2018-12-19T20:45:46.141Z,20.97
2018-12-19T20:48:17.363Z,18.87
2018-12-19T20:50:48.421Z,19.93
2018-12-19T20:53:19.291Z,18.57
2018-12-19T20:55:50.424Z,20.10
2018-12-19T20:58:22.094Z,19.20
2018-12-19T21:00:53.512Z,20.57
2018-12-19T21:03:24.526Z,18.20
2018-12-19T21:05:55.126Z,18.57
2018-12-19T21:08:26.872Z,20.17
2018-12-19T21:10:58.351Z,19.67
2018-12-19T21:13:29.432Z,18.60
2018-12-19T21:16:00.823Z,19.87
2018-12-19T21:18:36.971Z,20.00
2018-12-19T21:21:08.871Z,17.10
2018-12-19T21:23:40.443Z,16.37
2018-12-19T21:26:11.986Z,18.20
2018-12-19T21:28:42.820Z,16.40
2018-12-19T21:31:13.991Z,15.93
2018-12-19T21:33:44.991Z,16.07
2018-12-19T21:36:16.181Z,15.67
2018-12-19T21:38:47.191Z,16.13
2018-12-19T21:41:17.915Z,18.93
2018-12-19T21:43:53.689Z,18.03
2018-12-19T21:46:23.032Z,18.13
2018-12-19T21:48:54.087Z,15.23
2018-12-19T21:51:25.241Z,18.20
2018-12-19T21:53:57.871Z,15.50
2018-12-19T21:56:29.333Z,14.97
2018-12-19T21:59:00.857Z,14.37
2018-12-19T22:01:31.867Z,16.37
2018-12-19T22:04:03.002Z,16.00
2018-12-19T22:06:34.006Z,16.60
2018-12-19T22:09:06.785Z,16.20
2018-12-19T22:11:37.895Z,16.33
2018-12-19T22:14:09.311Z,15.50
2018-12-19T22:16:45.750Z,16.77
2018-12-19T22:19:16.715Z,16.63
2018-12-19T22:21:47.855Z,15.17
2018-12-19T22:24:18.705Z,15.03
2018-12-19T22:26:49.902Z,16.27
2018-12-19T22:29:20.830Z,14.77
2018-12-19T22:31:51.553Z,15.10
2018-12-19T22:34:22.170Z,15.97
2018-12-19T22:41:16.790Z,15.30
2018-12-19T22:43:50.183Z,16.13
2018-12-19T22:46:21.175Z,17.17
2018-12-19T22:48:51.987Z,17.67
2018-12-19T22:51:22.958Z,17.20
2018-12-19T22:53:53.611Z,17.23
2018-12-19T22:56:24.153Z,18.23
2018-12-19T22:58:55.649Z,18.63
2018-12-19T23:01:31.460Z,17.80
2018-12-19T23:04:07.727Z,18.13
2018-12-19T23:06:38.621Z,16.80
2018-12-19T23:09:09.733Z,15.17
2018-12-19T23:11:40.300Z,17.47
2018-12-19T23:14:15.551Z,18.13
2018-12-19T23:16:52.190Z,18.97
2018-12-19T23:19:28.834Z,19.77
2018-12-19T23:22:05.538Z,18.37
2018-12-19T23:24:41.547Z,16.70
2018-12-19T23:27:14.410Z,18.17
2018-12-19T23:29:46.672Z,19.53
2018-12-19T23:32:21.540Z,18.07
2018-12-19T23:34:52.449Z,17.57
2018-12-19T23:37:23.058Z,17.43
2018-12-19T23:39:54.250Z,17.57
2018-12-19T23:42:25.390Z,18.23
2018-12-19T23:44:56.531Z,18.30
2018-12-19T23:47:27.636Z,17.33
2018-12-19T23:49:58.753Z,16.93
2018-12-19T23:52:29.894Z,18.50
2018-12-19T23:55:01.349Z,18.13
2018-12-19T23:57:32.858Z,18.13
